AirNav   Everest Fuels
 
 967 users online  

MU95 First Precinct Police Heliport
Blackjack, Missouri, USA

GOING TO BLACKJACK?


FAA INFORMATION EFFECTIVE 18 JUNE 2020

Location

FAA Identifier: MU95
Lat/Long: 38-47-12.0400N 090-14-06.9800W
38-47.200667N 090-14.116333W
38.7866778,-90.2352722
(estimated)
Elevation: 534 ft. / 163 m (estimated)
Variation: 01E (1990)
From city: 1 mile SE of BLACKJACK, MO
Time zone: UTC -5 (UTC -6 during Standard Time)
Zip code: 63033

Heliport Operations

Heliport use: Private use. Permission required prior to landing
Activation date: 02/1992
Control tower: no
ARTCC: KANSAS CITY CENTER
FSS: SAINT LOUIS FLIGHT SERVICE STATION
Attendance: CONTINUOUS
Wind indicator: yes
Segmented circle: no

Heliport Communications

WX ASOS at STL (7 nm W): 125.025 (314-890-4790)
WX AWOS-3 at ALN (11 nm NE): 128.0 (618-259-7231)
WX ASOS at SET (13 nm NW): 118.075 (636-250-4590)
WX ASOS at CPS (14 nm S): PHONE 618-332-0001

Nearby radio navigation aids

VOR radial/distance  VOR name  Freq  Var
STLr110/12.4ST LOUIS VORTAC117.4001E
TOYr277/15.1TROY VORTAC116.0004E
FTZr076/34.9FORISTELL VORTAC110.8005E

 
NDB name  Hdg/Dist  Freq  Var  ID
CIVIC MEMORIAL234/10.526301WCVM -.-. ...- --

Heliport Services

Runway Information

Helipad H1

Dimensions: 40 x 40 ft. / 12 x 12 m
Surface: concrete
Traffic pattern: leftleft

Heliport Ownership and Management from official FAA records

Ownership: Publicly-owned
Owner: ST. LOUIS COUNTY POLICE DEPT.
7900 FORSYTH
ST. LOUIS, MO 63105
Phone 314-889-2341
Manager: SGT. DAN CUNNINGHAM
18200 EDISON
CHESTERFIELD, MO 63005
Phone 636-532-2984

Additional Remarks

OWNER DESIRES ARPT NOT BE CHARTED.
FOR CD CTC ST LOUIS APCH AT 314-890-1018.

Instrument Procedures

There are no published instrument procedures at MU95.

Some nearby airports with instrument procedures:

KSTL - St Louis Lambert International Airport (7 nm W)
KALN - St Louis Regional Airport (11 nm NE)
KSET - St Charles County Smartt Airport (13 nm NW)
1H0 - Creve Coeur Airport (13 nm W)
KCPS - St Louis Downtown Airport (14 nm S)
 
Loc | Ops | Rwys | IFR | FBO | Links
Com | Nav | Svcs | Stats | Notes
Area around MU95 (First Precinct Police Heliport)
 
Road maps at: MapQuest Bing Google
 
Aerial photo
No photo
 
Sectional chart

 
Airport distance calculator
Flying to First Precinct Police Heliport? Find the distance to fly.

From to MU95

Sunrise and sunset
Times for 15-Jul-2020
 Local
(UTC-5)
 Zulu
(UTC)
Morning civil twilight05:1910:19
Sunrise05:5010:50
Sunset20:2401:24
Evening civil twilight20:5501:55

Current date and time
Zulu (UTC)  15-Jul-2020 13:09:26
Local (UTC-5)  15-Jul-2020 08:09:26
 
METAR
KSTL 
7nm W 
151251Z 15010KT 10SM FEW040 FEW075 OVC250 26/20 A2998 RMK AO2 SLP137 TCU DSNT NE AND E T02610200
KALN 
11nm NE 
151250Z 10006KT 10SM SCT060 OVC250 23/22 A3000
KSET 
13nm NW 
151254Z AUTO 08005KT 10SM FEW032 SCT041 BKN050 24/21 A2996 RMK AO2 RAB26E43 SLP139 P0004 T02390211
KCPS 
14nm S 
151253Z AUTO 14007KT 10SM FEW044 SCT060 BKN100 24/21 A2998 RMK AO2 RAB28E47 SLP147 P0000 T02390211
TAF
KSTL 
7nm W 
151129Z 1512/1618 14009KT P6SM BKN050 FM152100 16011KT P6SM VCTS BKN050CB TEMPO 1521/1524 3SM TSRA FM160100 30006KT P6SM OVC045 FM161200 33005KT P6SM BKN015
KCPS 
14nm S 
151129Z 1512/1612 14006KT P6SM BKN050 FM152200 16010KT P6SM VCTS BKN050CB TEMPO 1522/1601 3SM TSRA FM160200 30005KT P6SM OVC045
NOTAMs
Click for the latest NOTAMs
NOTAMs are issued by the DoD/FAA and will open in a separate window not controlled by AirNav.

 

 
 

Would you like to see your business listed on this page?

 If your business provides an interesting product or service to pilots, flight crews, aircraft, or users of the First Precinct Police Heliport, you should consider listing it here.  To start the listing process, click on the button below
 
Add a business
 

Other Pages about First Precinct Police Heliport

Update a link
 
Copyright © AirNav, LLC. All rights reserved. Privacy Policy  Contact